createdAt,value
2022-08-09T00:00:00.486Z,12.60
2022-08-09T00:02:37.616Z,7.75
2022-08-09T00:06:16.672Z,8.38
2022-08-09T00:08:01.474Z,10.27
2022-08-09T00:10:28.675Z,6.50
2022-08-09T00:12:55.555Z,14.45
2022-08-09T00:15:26.790Z,6.72
2022-08-09T00:18:11.558Z,8.25
2022-08-09T00:20:42.461Z,5.65
2022-08-09T00:23:54.962Z,7.47
2022-08-09T00:26:11.064Z,7.85
2022-08-09T00:28:39.549Z,8.85
2022-08-09T00:31:30.728Z,3.63
2022-08-09T00:33:55.229Z,4.85
2022-08-09T00:36:29.761Z,7.35
2022-08-09T00:38:58.677Z,7.68
2022-08-09T00:44:11.595Z,7.65
2022-08-09T00:44:25.891Z,4.07
2022-08-09T00:47:05.426Z,5.93
2022-08-09T00:49:36.792Z,9.73
2022-08-09T00:52:06.140Z,8.77
2022-08-09T00:54:43.186Z,6.20
2022-08-09T00:57:12.510Z,7.00
2022-08-09T00:59:46.725Z,7.57
2022-08-09T01:02:33.995Z,9.27
2022-08-09T01:05:13.855Z,6.13
2022-08-09T01:08:11.723Z,6.60
2022-08-09T01:10:45.097Z,6.97
2022-08-09T01:13:18.425Z,5.30
2022-08-09T01:15:53.002Z,7.20
2022-08-09T01:18:29.847Z,4.30
2022-08-09T01:21:17.313Z,8.65
2022-08-09T01:24:09.244Z,6.65
2022-08-09T01:26:42.061Z,10.35
2022-08-09T01:29:16.098Z,7.78
2022-08-09T01:32:31.809Z,7.65
2022-08-09T01:34:35.450Z,6.25
2022-08-09T01:37:08.099Z,6.15
2022-08-09T01:39:38.073Z,4.60
2022-08-09T01:42:08.079Z,5.20
2022-08-09T01:44:41.309Z,6.10
2022-08-09T01:47:11.845Z,9.88
2022-08-09T01:49:39.981Z,5.63
2022-08-09T01:52:15.347Z,6.47
2022-08-09T01:54:49.134Z,6.85
2022-08-09T01:57:20.953Z,3.58
2022-08-09T01:59:52.568Z,6.32
2022-08-09T02:02:30.105Z,6.68
2022-08-09T02:05:05.639Z,6.45
2022-08-09T02:08:39.035Z,7.68
2022-08-09T02:10:52.530Z,8.73
2022-08-09T02:13:26.128Z,9.75
2022-08-09T02:16:07.642Z,15.85
2022-08-09T02:18:38.186Z,7.65
2022-08-09T02:21:17.117Z,5.82
2022-08-09T02:23:54.800Z,7.97
2022-08-09T02:26:27.085Z,8.10
2022-08-09T02:28:59.905Z,5.50
2022-08-09T02:31:34.009Z,7.45
2022-08-09T02:34:26.023Z,4.80
2022-08-09T02:37:07.695Z,5.15
2022-08-09T02:39:45.252Z,8.65
2022-08-09T02:42:24.732Z,6.13
2022-08-09T02:45:04.822Z,10.57
2022-08-09T02:47:58.102Z,4.95
2022-08-09T02:50:26.922Z,7.15
2022-08-09T02:52:57.812Z,6.75
2022-08-09T02:55:39.434Z,6.57
2022-08-09T02:58:32.800Z,6.63
2022-08-09T03:01:08.008Z,7.32
2022-08-09T03:04:17.129Z,6.05
2022-08-09T03:06:27.369Z,8.32
2022-08-09T03:08:55.522Z,5.53
2022-08-09T03:11:29.894Z,7.47
2022-08-09T03:14:12.875Z,6.60
2022-08-09T03:16:45.217Z,7.15
2022-08-09T03:19:58.713Z,10.32
2022-08-09T03:22:12.113Z,8.88
2022-08-09T03:25:06.140Z,10.95
2022-08-09T03:27:45.417Z,6.93
2022-08-09T03:30:29.166Z,12.20
2022-08-09T03:33:13.097Z,10.70
2022-08-09T03:36:14.021Z,8.43
2022-08-09T03:38:44.652Z,18.02
2022-08-09T03:41:16.579Z,12.53
2022-08-09T03:44:03.472Z,10.85
2022-08-09T03:46:33.569Z,10.20
2022-08-09T03:49:08.138Z,14.07
2022-08-09T03:51:55.696Z,11.40
2022-08-09T03:54:29.540Z,11.45
2022-08-09T03:57:01.020Z,10.82
2022-08-09T03:59:43.050Z,10.27
2022-08-09T04:02:30.313Z,9.65
2022-08-09T04:05:00.953Z,8.50
2022-08-09T04:07:46.974Z,12.65
2022-08-09T04:10:18.402Z,11.63
2022-08-09T04:12:53.459Z,8.68
2022-08-09T04:15:38.804Z,8.85
2022-08-09T04:18:18.024Z,9.55
2022-08-09T04:20:51.434Z,12.32
2022-08-09T04:23:23.325Z,12.32
2022-08-09T04:25:52.950Z,18.00
2022-08-09T04:28:34.053Z,11.95
2022-08-09T04:31:07.930Z,13.02
2022-08-09T04:33:52.056Z,14.25
2022-08-09T04:36:25.924Z,15.32
2022-08-09T04:38:55.024Z,10.93
2022-08-09T04:41:23.836Z,14.00
2022-08-09T04:44:05.856Z,16.95
2022-08-09T04:46:56.911Z,16.05
2022-08-09T04:49:22.154Z,13.68
2022-08-09T04:51:57.340Z,15.77
2022-08-09T04:54:24.144Z,11.60
2022-08-09T04:56:51.066Z,12.45
2022-08-09T04:59:17.911Z,10.85
2022-08-09T05:01:49.599Z,12.25
2022-08-09T05:04:17.101Z,12.20
2022-08-09T05:06:44.272Z,11.45
2022-08-09T05:09:11.153Z,12.00
2022-08-09T05:11:40.005Z,7.95
2022-08-09T05:14:10.466Z,11.30
2022-08-09T05:16:58.171Z,11.32
2022-08-09T05:19:31.687Z,9.98
2022-08-09T05:22:36.084Z,13.03
2022-08-09T05:25:02.721Z,8.95
2022-08-09T05:27:30.286Z,7.38
2022-08-09T05:29:59.048Z,7.57
2022-08-09T05:32:26.440Z,9.45
2022-08-09T05:34:57.269Z,11.25
2022-08-09T05:37:25.271Z,8.45
2022-08-09T05:39:52.539Z,6.00
2022-08-09T05:42:30.937Z,8.27
2022-08-09T05:44:58.092Z,7.35
2022-08-09T05:47:30.308Z,8.32
2022-08-09T05:50:30.447Z,9.32
2022-08-09T05:52:53.799Z,9.85
2022-08-09T05:55:23.475Z,7.50
2022-08-09T05:57:56.485Z,5.93
2022-08-09T06:00:30.227Z,7.35
2022-08-09T06:02:59.017Z,7.80
2022-08-09T06:05:31.051Z,6.40
2022-08-09T06:08:19.128Z,7.07
2022-08-09T06:10:51.586Z,9.95
2022-08-09T06:13:20.509Z,9.88
2022-08-09T06:15:51.263Z,6.03
2022-08-09T06:18:25.170Z,7.55
2022-08-09T06:20:58.346Z,8.38
2022-08-09T06:23:55.716Z,8.35
2022-08-09T06:26:22.297Z,16.83
2022-08-09T06:29:00.481Z,9.33
2022-08-09T06:31:39.828Z,10.57
2022-08-09T06:34:22.676Z,6.35
2022-08-09T06:36:57.224Z,8.05
2022-08-09T06:39:48.971Z,7.50
2022-08-09T06:42:19.842Z,13.43
2022-08-09T06:44:51.813Z,8.10
2022-08-09T06:47:21.470Z,7.95
2022-08-09T06:50:13.689Z,5.88
2022-08-09T06:52:36.140Z,7.38
2022-08-09T06:55:12.562Z,8.40
2022-08-09T06:58:01.185Z,8.95
2022-08-09T07:00:52.912Z,10.55
2022-08-09T07:03:14.693Z,6.65
2022-08-09T07:06:02.542Z,5.95
2022-08-09T07:08:28.651Z,8.15
2022-08-09T07:10:57.517Z,6.85
2022-08-09T07:13:29.294Z,7.90
2022-08-09T07:16:41.372Z,5.97
2022-08-09T07:18:47.395Z,9.30
2022-08-09T07:21:17.435Z,7.70
2022-08-09T07:23:46.602Z,7.13
2022-08-09T07:26:26.202Z,11.23
2022-08-09T07:29:08.651Z,5.50
2022-08-09T07:31:45.046Z,6.30
2022-08-09T07:34:19.556Z,9.10
2022-08-09T07:36:49.192Z,7.15
2022-08-09T07:39:20.108Z,6.93
2022-08-09T07:42:03.509Z,6.55
2022-08-09T07:44:32.986Z,9.38
2022-08-09T07:47:19.675Z,5.93
2022-08-09T07:50:04.604Z,9.00
2022-08-09T07:52:32.940Z,5.25
2022-08-09T07:55:08.606Z,9.77
2022-08-09T07:57:36.431Z,5.18
2022-08-09T08:00:08.942Z,6.10
2022-08-09T08:02:42.430Z,6.47
2022-08-09T08:05:17.518Z,5.60
2022-08-09T08:08:44.515Z,7.75
2022-08-09T08:10:34.191Z,6.72
2022-08-09T08:13:01.652Z,3.65
2022-08-09T08:15:35.503Z,5.80
2022-08-09T08:18:04.973Z,3.88
2022-08-09T08:20:32.731Z,6.43
2022-08-09T08:23:06.527Z,5.88
2022-08-09T08:25:46.684Z,5.03
2022-08-09T08:28:31.862Z,5.93
2022-08-09T08:31:08.926Z,3.60
2022-08-09T08:33:53.290Z,3.80
2022-08-09T08:36:29.018Z,9.43
2022-08-09T08:38:58.190Z,7.33
2022-08-09T08:41:30.786Z,7.93
2022-08-09T08:44:14.463Z,5.18
2022-08-09T08:47:00.075Z,6.47
2022-08-09T08:49:46.929Z,3.42
2022-08-09T08:52:41.469Z,2.30
2022-08-09T08:55:05.603Z,6.63
2022-08-09T08:57:35.068Z,3.85
2022-08-09T09:00:13.105Z,4.18
2022-08-09T09:02:52.813Z,4.97
2022-08-09T09:05:32.929Z,4.85
2022-08-09T09:08:02.602Z,3.65
2022-08-09T09:10:30.597Z,6.13
2022-08-09T09:12:58.591Z,4.63
2022-08-09T09:15:28.649Z,3.10
2022-08-09T09:17:55.928Z,4.25
2022-08-09T09:20:22.842Z,3.72
2022-08-09T09:23:02.017Z,4.30
2022-08-09T09:26:01.002Z,4.82
2022-08-09T09:29:02.609Z,4.80
2022-08-09T09:32:01.762Z,4.00
2022-08-09T09:34:18.339Z,7.38
2022-08-09T09:36:53.130Z,7.13
2022-08-09T09:39:25.746Z,4.90
2022-08-09T09:42:25.837Z,4.82
2022-08-09T09:45:06.574Z,6.60
2022-08-09T09:47:47.586Z,4.75
2022-08-09T09:50:42.116Z,5.75
2022-08-09T09:53:43.743Z,4.32
2022-08-09T09:56:20.084Z,6.47
2022-08-09T09:58:59.638Z,11.23
2022-08-09T10:01:37.275Z,5.93
2022-08-09T10:04:22.779Z,7.85
2022-08-09T10:06:57.790Z,6.60
2022-08-09T10:09:26.098Z,9.13
2022-08-09T10:12:12.182Z,7.32
2022-08-09T10:14:51.333Z,9.68
2022-08-09T10:17:39.207Z,7.60
2022-08-09T10:20:27.865Z,10.63
2022-08-09T10:23:17.342Z,7.05
2022-08-09T10:26:07.981Z,8.32
2022-08-09T10:28:37.444Z,8.40
2022-08-09T10:34:08.941Z,12.73
2022-08-09T10:36:39.027Z,9.57
2022-08-09T10:39:15.510Z,9.65
2022-08-09T10:41:45.938Z,9.60
2022-08-09T10:44:18.329Z,6.32
2022-08-09T10:48:12.342Z,10.02
2022-08-09T10:50:15.145Z,8.10
2022-08-09T10:53:10.605Z,11.88
2022-08-09T10:55:58.162Z,10.80
2022-08-09T10:58:33.910Z,6.93
2022-08-09T11:03:05.636Z,7.53
2022-08-09T11:04:19.714Z,8.63
2022-08-09T11:07:00.205Z,9.20
2022-08-09T11:09:48.038Z,6.57
2022-08-09T11:12:29.701Z,6.18
2022-08-09T11:14:58.042Z,6.68
2022-08-09T11:17:25.109Z,8.82
2022-08-09T11:20:20.151Z,9.25
2022-08-09T11:22:56.576Z,14.73
2022-08-09T11:28:38.610Z,9.88
2022-08-09T11:31:49.453Z,11.32
2022-08-09T11:34:25.009Z,12.13
2022-08-09T11:36:52.735Z,12.05
2022-08-09T11:39:19.744Z,10.32
2022-08-09T11:41:47.102Z,10.77
2022-08-09T11:44:15.968Z,13.52
2022-08-09T11:46:57.731Z,14.90
2022-08-09T11:50:55.103Z,13.63
2022-08-09T11:53:16.208Z,8.95
2022-08-09T11:55:53.318Z,12.90
2022-08-09T11:58:32.953Z,9.77
2022-08-09T12:01:08.797Z,9.20
2022-08-09T12:03:56.742Z,15.48
2022-08-09T12:06:32.401Z,14.07
2022-08-09T12:09:06.179Z,11.00
2022-08-09T12:12:03.006Z,9.20
2022-08-09T12:14:37.115Z,15.77
2022-08-09T12:17:27.703Z,11.90
2022-08-09T12:20:21.793Z,8.50
2022-08-09T12:22:56.326Z,10.60
2022-08-09T12:25:37.183Z,10.52
2022-08-09T12:29:11.901Z,9.23
2022-08-09T12:31:01.670Z,15.90
2022-08-09T12:33:51.029Z,12.60
2022-08-09T12:36:31.291Z,15.35
2022-08-09T12:39:00.073Z,15.93
2022-08-09T12:41:38.371Z,17.58
2022-08-09T12:44:09.694Z,7.45
2022-08-09T12:46:39.586Z,13.93
2022-08-09T12:49:08.787Z,10.48
2022-08-09T12:52:01.605Z,19.05
2022-08-09T12:54:23.989Z,7.75
2022-08-09T12:56:54.426Z,10.93
2022-08-09T12:59:24.992Z,15.93
2022-08-09T13:02:11.812Z,14.05
2022-08-09T13:04:58.836Z,14.90
2022-08-09T13:07:32.982Z,8.25
2022-08-09T13:10:13.080Z,14.40
2022-08-09T13:13:09.982Z,5.78
2022-08-09T13:15:50.002Z,7.85
2022-08-09T13:18:17.666Z,11.68
2022-08-09T13:21:04.199Z,11.30
2022-08-09T13:24:15.778Z,11.95
2022-08-09T13:26:42.490Z,10.90
2022-08-09T13:29:13.367Z,13.82
2022-08-09T13:32:17.383Z,7.88
2022-08-09T13:34:47.804Z,13.07
2022-08-09T13:37:24.586Z,8.57
2022-08-09T13:41:52.157Z,13.90
2022-08-09T13:42:54.282Z,12.50
2022-08-09T13:45:21.561Z,10.65
2022-08-09T13:47:59.605Z,9.70
2022-08-09T13:50:30.407Z,16.13
2022-08-09T13:52:58.709Z,13.68
2022-08-09T13:55:29.026Z,9.95
2022-08-09T13:57:58.483Z,12.55
2022-08-09T14:00:29.279Z,7.03
2022-08-09T14:03:16.669Z,12.05
2022-08-09T14:06:01.301Z,13.25
2022-08-09T14:08:31.518Z,11.18
2022-08-09T14:10:59.578Z,10.20
2022-08-09T14:14:25.022Z,13.02
2022-08-09T14:16:28.685Z,15.50
2022-08-09T14:18:58.094Z,11.77
2022-08-09T14:21:29.583Z,8.98
2022-08-09T14:24:01.544Z,12.25
2022-08-09T14:26:47.235Z,9.15
2022-08-09T14:29:25.674Z,10.75
2022-08-09T14:32:11.119Z,13.18
2022-08-09T14:34:41.054Z,9.10
2022-08-09T14:37:08.554Z,15.07
2022-08-09T14:39:40.297Z,17.65
2022-08-09T14:42:31.827Z,13.50
2022-08-09T14:46:39.805Z,10.32
2022-08-09T14:47:57.417Z,9.95
2022-08-09T14:50:28.122Z,12.05
2022-08-09T14:52:55.296Z,11.30
2022-08-09T14:55:22.259Z,8.43
2022-08-09T14:57:49.656Z,10.20
2022-08-09T15:00:17.908Z,8.27
2022-08-09T15:02:47.700Z,16.00
2022-08-09T15:05:18.916Z,11.95
2022-08-09T15:07:55.964Z,10.45
2022-08-09T15:10:27.512Z,13.45
2022-08-09T15:12:58.398Z,18.02
2022-08-09T15:15:28.254Z,12.57
2022-08-09T15:17:56.589Z,16.30
2022-08-09T15:22:00.896Z,11.35
2022-08-09T15:23:56.012Z,9.77
2022-08-09T15:26:00.537Z,13.85
2022-08-09T15:28:33.039Z,10.23
2022-08-09T15:31:10.097Z,12.45
2022-08-09T15:34:33.610Z,21.10
2022-08-09T15:36:30.328Z,15.35
2022-08-09T15:39:01.005Z,11.73
2022-08-09T15:41:32.309Z,14.90
2022-08-09T15:44:03.893Z,12.43
2022-08-09T15:46:34.050Z,15.48
2022-08-09T15:49:20.924Z,13.77
2022-08-09T15:52:02.857Z,6.97
2022-08-09T15:54:48.885Z,7.82
2022-08-09T15:57:34.342Z,12.20
2022-08-09T16:00:29.327Z,14.20
2022-08-09T16:02:58.367Z,10.75
2022-08-09T16:05:47.527Z,12.02
2022-08-09T16:08:30.763Z,8.60
2022-08-09T16:11:00.221Z,9.38
2022-08-09T16:14:04.879Z,16.95
2022-08-09T16:16:18.550Z,9.60
2022-08-09T16:18:46.256Z,10.15
2022-08-09T16:21:17.689Z,7.63
2022-08-09T16:23:59.048Z,12.73
2022-08-09T16:26:33.803Z,8.55
2022-08-09T16:29:14.138Z,10.95
2022-08-09T16:32:17.934Z,10.30
2022-08-09T16:34:55.690Z,10.85
2022-08-09T16:37:17.604Z,9.70
2022-08-09T16:39:54.620Z,6.32
2022-08-09T16:42:32.131Z,11.20
2022-08-09T16:44:59.011Z,14.43
2022-08-09T16:48:41.195Z,12.73
2022-08-09T16:50:30.074Z,18.17
2022-08-09T16:53:00.725Z,6.55
2022-08-09T16:55:31.483Z,9.05
2022-08-09T16:58:16.602Z,8.75
2022-08-09T17:00:43.966Z,10.73
2022-08-09T17:03:21.807Z,8.68
2022-08-09T17:06:06.740Z,13.60
2022-08-09T17:08:58.977Z,13.02
2022-08-09T17:11:39.998Z,15.77
2022-08-09T17:14:26.552Z,12.75
2022-08-09T17:17:01.448Z,15.68
2022-08-09T17:19:47.686Z,13.80
2022-08-09T17:22:24.910Z,14.85
2022-08-09T17:25:03.007Z,10.60
2022-08-09T17:27:32.623Z,17.80
2022-08-09T17:29:59.453Z,9.23
2022-08-09T17:32:34.914Z,8.38
2022-08-09T17:35:11.312Z,15.63
2022-08-09T17:38:14.574Z,15.68
2022-08-09T17:40:31.911Z,16.92
2022-08-09T17:43:10.698Z,17.20
2022-08-09T17:46:02.576Z,16.38
2022-08-09T17:48:31.475Z,16.70
2022-08-09T17:51:08.687Z,16.20
2022-08-09T17:53:43.227Z,21.92
2022-08-09T17:56:15.000Z,12.30
2022-08-09T17:58:45.456Z,11.82
2022-08-09T18:01:22.632Z,15.75
2022-08-09T18:03:52.471Z,13.07
2022-08-09T18:06:28.762Z,15.30
2022-08-09T18:08:59.002Z,17.95
2022-08-09T18:11:25.943Z,23.17
2022-08-09T18:14:00.530Z,14.25
2022-08-09T18:16:30.956Z,14.45
2022-08-09T18:19:03.948Z,14.27
2022-08-09T18:21:40.934Z,17.92
2022-08-09T18:24:14.504Z,15.75
2022-08-09T18:26:46.859Z,13.00
2022-08-09T18:30:37.959Z,16.45
2022-08-09T18:32:07.317Z,15.52
2022-08-09T18:34:35.671Z,12.68
2022-08-09T18:37:03.874Z,16.17
2022-08-09T18:39:32.586Z,11.05
2022-08-09T18:42:01.772Z,14.10
2022-08-09T18:44:28.767Z,14.27
2022-08-09T18:47:08.490Z,15.25
2022-08-09T18:49:46.182Z,20.67
2022-08-09T18:52:24.652Z,11.43
2022-08-09T18:54:53.380Z,13.50
2022-08-09T18:57:22.786Z,14.95
2022-08-09T18:59:57.439Z,14.15
2022-08-09T19:02:30.650Z,18.25
2022-08-09T19:05:04.390Z,14.27
2022-08-09T19:07:59.377Z,18.98
2022-08-09T19:10:29.714Z,16.15
2022-08-09T19:13:15.387Z,14.27
2022-08-09T19:15:47.186Z,16.85
2022-08-09T19:18:32.914Z,17.40
2022-08-09T19:21:05.686Z,18.08
2022-08-09T19:24:37.579Z,17.33
2022-08-09T19:26:31.141Z,18.35
2022-08-09T19:29:15.309Z,22.85
2022-08-09T19:31:46.473Z,19.27
2022-08-09T19:34:22.007Z,13.88
2022-08-09T19:36:50.781Z,17.83
2022-08-09T19:39:20.978Z,16.63
2022-08-09T19:41:57.112Z,13.52
2022-08-09T19:44:24.652Z,9.80
2022-08-09T19:46:53.517Z,21.75
2022-08-09T19:50:09.514Z,12.88
2022-08-09T19:52:10.025Z,16.70
2022-08-09T19:54:39.794Z,15.75
2022-08-09T19:57:08.513Z,23.05
2022-08-09T19:59:58.047Z,16.88
2022-08-09T20:04:07.616Z,14.75
2022-08-09T20:05:14.941Z,17.25
2022-08-09T20:08:00.255Z,13.35
2022-08-09T20:10:34.693Z,16.92
2022-08-09T20:13:04.712Z,12.48
2022-08-09T20:16:36.920Z,11.27
2022-08-09T20:18:19.743Z,14.15
2022-08-09T20:20:47.233Z,28.25
2022-08-09T20:23:19.478Z,14.40
2022-08-09T20:25:52.540Z,18.25
2022-08-09T20:28:24.469Z,14.32
2022-08-09T20:30:55.291Z,13.75
2022-08-09T20:33:22.396Z,14.55
2022-08-09T20:35:51.681Z,16.27
2022-08-09T20:38:39.625Z,14.45
2022-08-09T20:41:06.868Z,16.30
2022-08-09T20:43:33.713Z,16.90
2022-08-09T20:46:33.729Z,17.60
2022-08-09T20:48:49.686Z,19.10
2022-08-09T20:51:23.032Z,16.95
2022-08-09T20:53:51.330Z,17.33
2022-08-09T20:56:21.865Z,17.23
2022-08-09T20:58:58.726Z,17.33
2022-08-09T21:01:35.377Z,11.85
2022-08-09T21:05:55.899Z,21.10
2022-08-09T21:07:12.195Z,22.08
2022-08-09T21:09:56.951Z,14.25
2022-08-09T21:15:23.779Z,21.38
2022-08-09T21:18:21.068Z,21.80
2022-08-09T21:20:50.268Z,18.58
2022-08-09T21:23:21.632Z,19.80
2022-08-09T21:25:59.851Z,21.20
2022-08-09T21:28:35.115Z,19.05
2022-08-09T21:31:16.440Z,17.73
2022-08-09T21:33:50.918Z,22.95
2022-08-09T21:36:25.850Z,18.50
2022-08-09T21:38:57.366Z,13.63
2022-08-09T21:42:03.860Z,17.77
2022-08-09T21:44:15.372Z,15.13
2022-08-09T21:47:07.675Z,12.77
2022-08-09T21:49:39.248Z,15.07
2022-08-09T21:52:14.403Z,16.35
2022-08-09T21:54:51.001Z,14.13
2022-08-09T21:57:37.206Z,18.48
2022-08-09T22:00:10.592Z,17.35
2022-08-09T22:02:40.203Z,15.98
2022-08-09T22:05:22.344Z,10.70
2022-08-09T22:07:52.235Z,14.93
2022-08-09T22:10:22.187Z,12.88
2022-08-09T22:12:52.172Z,13.02
2022-08-09T22:15:23.234Z,10.60
2022-08-09T22:18:00.376Z,12.52
2022-08-09T22:20:31.066Z,17.17
2022-08-09T22:22:59.071Z,16.35
2022-08-09T22:26:07.872Z,14.73
2022-08-09T22:28:13.173Z,13.82
2022-08-09T22:30:48.718Z,11.82
2022-08-09T22:33:17.408Z,17.75
2022-08-09T22:36:00.653Z,12.80
2022-08-09T22:40:58.328Z,19.70
2022-08-09T22:44:02.363Z,14.70
2022-08-09T22:48:15.791Z,13.30
2022-08-09T22:49:10.035Z,9.65
2022-08-09T22:51:39.302Z,10.13
2022-08-09T22:54:08.234Z,16.73
2022-08-09T22:56:41.307Z,9.27
2022-08-09T22:59:54.929Z,9.38
2022-08-09T23:01:57.126Z,9.77
2022-08-09T23:04:25.550Z,10.98
2022-08-09T23:07:14.005Z,15.05
2022-08-09T23:09:41.187Z,7.13
2022-08-09T23:12:08.216Z,7.28
2022-08-09T23:14:41.904Z,7.32
2022-08-09T23:17:10.351Z,9.38
2022-08-09T23:20:06.337Z,8.30
2022-08-09T23:22:24.704Z,13.50
2022-08-09T23:24:51.623Z,8.57
2022-08-09T23:27:18.680Z,13.27
2022-08-09T23:29:45.650Z,7.88
2022-08-09T23:32:12.813Z,8.05
2022-08-09T23:34:39.975Z,7.53
2022-08-09T23:37:08.153Z,8.90
2022-08-09T23:39:35.183Z,7.53
2022-08-09T23:42:02.161Z,6.63
2022-08-09T23:44:29.018Z,7.68
2022-08-09T23:46:57.639Z,8.73
2022-08-09T23:49:25.756Z,6.80
2022-08-09T23:51:53.425Z,12.52
2022-08-09T23:54:21.466Z,6.35
2022-08-09T23:56:56.030Z,7.68
2022-08-09T23:59:24.372Z,8.45
